sensor_id;sensor_type;location;lat;lon;timestamp;pressure;altitude;pressure_sealevel;temperature;humidity
27210;BME280;14721;42.668;23.386;2022-12-24T00:02:01;95222.16;;;3.81;90.19
27210;BME280;14721;42.668;23.386;2022-12-24T00:04:28;95220.53;;;3.79;90.81
27210;BME280;14721;42.668;23.386;2022-12-24T00:06:54;95219.41;;;3.30;93.58
27210;BME280;14721;42.668;23.386;2022-12-24T00:09:21;95222.94;;;3.31;95.24
27210;BME280;14721;42.668;23.386;2022-12-24T00:11:47;95208.09;;;3.28;95.70
27210;BME280;14721;42.668;23.386;2022-12-24T00:14:13;95226.59;;;3.28;96.23
27210;BME280;14721;42.668;23.386;2022-12-24T00:16:39;95226.00;;;3.22;95.52
27210;BME280;14721;42.668;23.386;2022-12-24T00:19:05;95227.16;;;2.98;95.23
27210;BME280;14721;42.668;23.386;2022-12-24T00:21:31;95223.44;;;3.02;96.90
27210;BME280;14721;42.668;23.386;2022-12-24T00:23:58;95221.00;;;3.16;97.25
27210;BME280;14721;42.668;23.386;2022-12-24T00:26:25;95219.47;;;2.93;97.88
27210;BME280;14721;42.668;23.386;2022-12-24T00:28:51;95219.81;;;2.86;98.15
27210;BME280;14721;42.668;23.386;2022-12-24T00:31:17;95229.22;;;2.91;98.54
27210;BME280;14721;42.668;23.386;2022-12-24T00:33:46;95215.94;;;2.93;98.21
27210;BME280;14721;42.668;23.386;2022-12-24T00:36:13;95227.94;;;2.81;96.89
27210;BME280;14721;42.668;23.386;2022-12-24T00:38:40;95226.06;;;3.02;95.41
27210;BME280;14721;42.668;23.386;2022-12-24T00:41:08;95213.09;;;2.97;94.08
27210;BME280;14721;42.668;23.386;2022-12-24T00:43:54;95233.69;;;2.71;93.31
27210;BME280;14721;42.668;23.386;2022-12-24T00:46:21;95233.13;;;2.64;93.49
27210;BME280;14721;42.668;23.386;2022-12-24T00:48:48;95210.66;;;2.17;93.81
27210;BME280;14721;42.668;23.386;2022-12-24T00:51:15;95227.59;;;2.12;95.30
27210;BME280;14721;42.668;23.386;2022-12-24T00:53:52;95227.81;;;2.07;95.79
27210;BME280;14721;42.668;23.386;2022-12-24T00:56:18;95229.44;;;2.10;95.45
27210;BME280;14721;42.668;23.386;2022-12-24T00:58:53;95231.16;;;1.90;94.87
27210;BME280;14721;42.668;23.386;2022-12-24T01:01:21;95235.34;;;1.74;95.75
27210;BME280;14721;42.668;23.386;2022-12-24T01:03:57;95236.53;;;1.67;95.96
27210;BME280;14721;42.668;23.386;2022-12-24T01:06:47;95243.09;;;1.57;96.71
27210;BME280;14721;42.668;23.386;2022-12-24T01:09:16;95231.75;;;1.55;97.53
27210;BME280;14721;42.668;23.386;2022-12-24T01:11:42;95231.63;;;1.37;97.57
27210;BME280;14721;42.668;23.386;2022-12-24T01:14:09;95219.03;;;1.45;98.36
27210;BME280;14721;42.668;23.386;2022-12-24T01:16:36;95238.41;;;1.64;98.04
27210;BME280;14721;42.668;23.386;2022-12-24T01:19:05;95241.84;;;1.44;98.15
27210;BME280;14721;42.668;23.386;2022-12-24T01:21:31;95235.44;;;1.51;98.61
27210;BME280;14721;42.668;23.386;2022-12-24T01:23:59;95233.72;;;1.50;98.56
27210;BME280;14721;42.668;23.386;2022-12-24T01:26:28;95231.94;;;1.29;99.21
27210;BME280;14721;42.668;23.386;2022-12-24T01:28:57;95229.88;;;1.37;99.36
27210;BME280;14721;42.668;23.386;2022-12-24T01:31:25;95195.53;;;1.19;99.47
27210;BME280;14721;42.668;23.386;2022-12-24T01:33:50;95221.22;;;1.34;99.85
27210;BME280;14721;42.668;23.386;2022-12-24T01:36:16;95217.09;;;1.28;100.00
27210;BME280;14721;42.668;23.386;2022-12-24T01:38:42;95229.06;;;1.35;100.00
27210;BME280;14721;42.668;23.386;2022-12-24T01:41:20;95241.16;;;1.41;100.00
27210;BME280;14721;42.668;23.386;2022-12-24T01:44:23;95240.91;;;1.25;100.00
27210;BME280;14721;42.668;23.386;2022-12-24T01:47:05;95243.28;;;1.31;100.00
27210;BME280;14721;42.668;23.386;2022-12-24T01:49:33;95234.28;;;1.37;100.00
27210;BME280;14721;42.668;23.386;2022-12-24T01:52:04;95239.72;;;1.54;100.00
27210;BME280;14721;42.668;23.386;2022-12-24T01:54:36;95231.75;;;1.55;99.59
27210;BME280;14721;42.668;23.386;2022-12-24T01:57:09;95229.75;;;1.62;98.83
27210;BME280;14721;42.668;23.386;2022-12-24T01:59:36;95229.31;;;1.51;98.21
27210;BME280;14721;42.668;23.386;2022-12-24T02:02:03;95236.06;;;1.36;98.61
27210;BME280;14721;42.668;23.386;2022-12-24T02:04:38;95226.75;;;1.49;98.87
27210;BME280;14721;42.668;23.386;2022-12-24T02:07:05;95225.34;;;1.41;99.42
27210;BME280;14721;42.668;23.386;2022-12-24T02:09:35;95209.94;;;1.32;100.00
27210;BME280;14721;42.668;23.386;2022-12-24T02:12:04;95194.16;;;1.52;100.00
27210;BME280;14721;42.668;23.386;2022-12-24T02:14:30;95202.25;;;1.89;100.00
27210;BME280;14721;42.668;23.386;2022-12-24T02:17:09;95221.66;;;1.86;100.00
27210;BME280;14721;42.668;23.386;2022-12-24T02:27:50;95222.28;;;1.30;100.00
27210;BME280;14721;42.668;23.386;2022-12-24T02:30:23;95218.66;;;1.32;100.00
27210;BME280;14721;42.668;23.386;2022-12-24T02:33:07;95218.28;;;1.63;100.00
27210;BME280;14721;42.668;23.386;2022-12-24T02:38:11;95219.47;;;1.34;100.00
27210;BME280;14721;42.668;23.386;2022-12-24T02:40:49;95213.84;;;1.22;100.00
27210;BME280;14721;42.668;23.386;2022-12-24T02:43:21;95220.88;;;1.21;100.00
27210;BME280;14721;42.668;23.386;2022-12-24T02:45:51;95225.34;;;1.41;100.00
27210;BME280;14721;42.668;23.386;2022-12-24T02:48:19;95226.38;;;1.58;100.00
27210;BME280;14721;42.668;23.386;2022-12-24T02:51:05;95217.34;;;1.44;100.00
27210;BME280;14721;42.668;23.386;2022-12-24T02:53:31;95211.88;;;1.48;100.00
27210;BME280;14721;42.668;23.386;2022-12-24T02:58:32;95176.34;;;1.17;100.00
27210;BME280;14721;42.668;23.386;2022-12-24T03:06:32;95201.72;;;1.18;100.00
27210;BME280;14721;42.668;23.386;2022-12-24T03:11:46;95219.22;;;1.19;100.00
27210;BME280;14721;42.668;23.386;2022-12-24T03:14:15;95211.94;;;1.04;99.69
27210;BME280;14721;42.668;23.386;2022-12-24T03:16:41;95211.03;;;1.05;99.76
27210;BME280;14721;42.668;23.386;2022-12-24T03:19:09;95211.94;;;1.04;99.95
27210;BME280;14721;42.668;23.386;2022-12-24T03:21:37;95207.59;;;1.03;100.00
27210;BME280;14721;42.668;23.386;2022-12-24T03:24:07;95209.25;;;1.05;100.00
27210;BME280;14721;42.668;23.386;2022-12-24T03:26:33;95200.00;;;0.95;100.00
27210;BME280;14721;42.668;23.386;2022-12-24T03:28:59;95209.38;;;0.81;100.00
27210;BME280;14721;42.668;23.386;2022-12-24T03:31:25;95214.28;;;0.90;100.00
27210;BME280;14721;42.668;23.386;2022-12-24T03:33:51;95214.84;;;0.75;100.00
27210;BME280;14721;42.668;23.386;2022-12-24T03:36:17;95203.75;;;0.67;100.00
27210;BME280;14721;42.668;23.386;2022-12-24T03:38:43;95210.19;;;0.60;100.00
27210;BME280;14721;42.668;23.386;2022-12-24T03:41:09;95211.72;;;0.65;100.00
27210;BME280;14721;42.668;23.386;2022-12-24T03:43:36;95212.16;;;0.53;100.00
27210;BME280;14721;42.668;23.386;2022-12-24T03:46:04;95206.34;;;0.68;100.00
27210;BME280;14721;42.668;23.386;2022-12-24T03:48:32;95205.66;;;0.63;100.00
27210;BME280;14721;42.668;23.386;2022-12-24T03:50:58;95210.56;;;0.72;100.00
27210;BME280;14721;42.668;23.386;2022-12-24T03:53:23;95215.22;;;0.66;100.00
27210;BME280;14721;42.668;23.386;2022-12-24T03:55:50;95216.78;;;0.70;100.00
27210;BME280;14721;42.668;23.386;2022-12-24T03:58:18;95220.13;;;0.75;100.00
27210;BME280;14721;42.668;23.386;2022-12-24T04:00:44;95209.38;;;1.02;100.00
27210;BME280;14721;42.668;23.386;2022-12-24T04:03:11;95219.28;;;0.96;100.00
27210;BME280;14721;42.668;23.386;2022-12-24T04:05:36;95220.72;;;0.81;100.00
27210;BME280;14721;42.668;23.386;2022-12-24T04:08:21;95222.81;;;0.95;100.00
27210;BME280;14721;42.668;23.386;2022-12-24T04:10:48;95225.50;;;0.72;100.00
27210;BME280;14721;42.668;23.386;2022-12-24T04:13:13;95233.50;;;0.69;100.00
27210;BME280;14721;42.668;23.386;2022-12-24T04:15:39;95237.47;;;0.79;100.00
27210;BME280;14721;42.668;23.386;2022-12-24T04:18:04;95239.41;;;0.74;100.00
27210;BME280;14721;42.668;23.386;2022-12-24T04:20:30;95232.41;;;0.74;100.00
27210;BME280;14721;42.668;23.386;2022-12-24T04:22:56;95235.19;;;0.70;100.00
27210;BME280;14721;42.668;23.386;2022-12-24T04:25:22;95235.31;;;0.67;100.00
27210;BME280;14721;42.668;23.386;2022-12-24T04:27:49;95234.91;;;0.77;100.00
27210;BME280;14721;42.668;23.386;2022-12-24T04:30:14;95231.59;;;0.72;100.00
27210;BME280;14721;42.668;23.386;2022-12-24T04:32:41;95241.22;;;0.73;100.00
27210;BME280;14721;42.668;23.386;2022-12-24T04:35:07;95248.00;;;0.79;100.00
27210;BME280;14721;42.668;23.386;2022-12-24T04:37:33;95250.09;;;0.92;100.00
27210;BME280;14721;42.668;23.386;2022-12-24T04:39:59;95253.25;;;1.02;100.00
27210;BME280;14721;42.668;23.386;2022-12-24T04:42:25;95255.06;;;1.00;100.00
27210;BME280;14721;42.668;23.386;2022-12-24T04:44:53;95250.50;;;0.82;100.00
27210;BME280;14721;42.668;23.386;2022-12-24T04:47:20;95260.91;;;0.85;100.00
27210;BME280;14721;42.668;23.386;2022-12-24T04:49:48;95256.59;;;0.84;100.00
27210;BME280;14721;42.668;23.386;2022-12-24T04:52:17;95262.69;;;0.84;100.00
27210;BME280;14721;42.668;23.386;2022-12-24T04:54:44;95254.13;;;0.79;100.00
27210;BME280;14721;42.668;23.386;2022-12-24T04:57:10;95256.69;;;0.81;99.91
27210;BME280;14721;42.668;23.386;2022-12-24T04:59:39;95256.94;;;0.75;99.74
27210;BME280;14721;42.668;23.386;2022-12-24T05:02:11;95252.00;;;0.66;99.24
27210;BME280;14721;42.668;23.386;2022-12-24T05:04:37;95258.16;;;0.65;99.34
27210;BME280;14721;42.668;23.386;2022-12-24T05:07:10;95252.63;;;0.72;98.86
27210;BME280;14721;42.668;23.386;2022-12-24T05:09:36;95248.81;;;0.81;98.89
27210;BME280;14721;42.668;23.386;2022-12-24T05:12:02;95250.41;;;0.62;99.34
27210;BME280;14721;42.668;23.386;2022-12-24T05:14:30;95237.94;;;0.67;99.48
27210;BME280;14721;42.668;23.386;2022-12-24T05:16:56;95252.25;;;0.60;99.22
27210;BME280;14721;42.668;23.386;2022-12-24T05:19:23;95234.47;;;0.43;99.41
27210;BME280;14721;42.668;23.386;2022-12-24T05:21:50;95235.78;;;0.55;99.65
27210;BME280;14721;42.668;23.386;2022-12-24T05:24:41;95223.19;;;0.40;99.55
27210;BME280;14721;42.668;23.386;2022-12-24T05:27:29;95226.97;;;0.33;100.00
27210;BME280;14721;42.668;23.386;2022-12-24T05:30:00;95232.91;;;0.38;100.00
27210;BME280;14721;42.668;23.386;2022-12-24T05:32:38;95233.44;;;0.23;100.00
27210;BME280;14721;42.668;23.386;2022-12-24T05:35:06;95235.19;;;0.24;100.00
27210;BME280;14721;42.668;23.386;2022-12-24T05:37:32;95234.81;;;0.10;100.00
27210;BME280;14721;42.668;23.386;2022-12-24T05:39:58;95234.81;;;0.10;100.00
27210;BME280;14721;42.668;23.386;2022-12-24T05:42:24;95229.41;;;0.14;100.00
27210;BME280;14721;42.668;23.386;2022-12-24T05:44:50;95233.44;;;0.23;100.00
27210;BME280;14721;42.668;23.386;2022-12-24T05:47:16;95236.31;;;0.17;99.85
27210;BME280;14721;42.668;23.386;2022-12-24T05:49:42;95231.25;;;0.11;99.66
27210;BME280;14721;42.668;23.386;2022-12-24T05:52:08;95225.22;;;0.09;99.30
27210;BME280;14721;42.668;23.386;2022-12-24T05:54:34;95242.59;;;0.13;99.04
27210;BME280;14721;42.668;23.386;2022-12-24T05:57:04;95219.22;;;0.05;98.82
27210;BME280;14721;42.668;23.386;2022-12-24T05:59:31;95228.06;;;0.03;98.89
27210;BME280;14721;42.668;23.386;2022-12-24T06:01:58;95234.00;;;0.08;98.80
27210;BME280;14721;42.668;23.386;2022-12-24T06:04:25;95236.94;;;0.00;98.58
27210;BME280;14721;42.668;23.386;2022-12-24T06:06:51;95241.47;;;-0.05;98.90
27210;BME280;14721;42.668;23.386;2022-12-24T06:09:17;95245.69;;;-0.01;98.55
27210;BME280;14721;42.668;23.386;2022-12-24T06:11:46;95239.47;;;0.01;98.57
27210;BME280;14721;42.668;23.386;2022-12-24T06:14:12;95240.78;;;0.15;98.61
27210;BME280;14721;42.668;23.386;2022-12-24T06:16:38;95248.00;;;0.33;98.45
27210;BME280;14721;42.668;23.386;2022-12-24T06:19:04;95257.81;;;0.28;98.07
27210;BME280;14721;42.668;23.386;2022-12-24T06:21:33;95240.06;;;0.10;97.28
27210;BME280;14721;42.668;23.386;2022-12-24T06:24:00;95265.84;;;0.23;96.97
27210;BME280;14721;42.668;23.386;2022-12-24T06:26:26;95259.94;;;0.17;96.47
27210;BME280;14721;42.668;23.386;2022-12-24T06:28:53;95264.19;;;0.21;96.71
27210;BME280;14721;42.668;23.386;2022-12-24T06:31:20;95262.34;;;0.23;96.53
27210;BME280;14721;42.668;23.386;2022-12-24T06:33:49;95261.69;;;0.41;96.96
27210;BME280;14721;42.668;23.386;2022-12-24T06:36:18;95260.44;;;0.74;96.69
27210;BME280;14721;42.668;23.386;2022-12-24T06:38:45;95271.53;;;1.05;95.67
27210;BME280;14721;42.668;23.386;2022-12-24T06:41:15;95280.78;;;0.92;94.04
27210;BME280;14721;42.668;23.386;2022-12-24T06:43:45;95271.50;;;0.83;93.70
27210;BME280;14721;42.668;23.386;2022-12-24T06:46:15;95284.81;;;0.79;93.52
27210;BME280;14721;42.668;23.386;2022-12-24T06:48:42;95279.31;;;0.85;93.85
27210;BME280;14721;42.668;23.386;2022-12-24T06:51:09;95285.50;;;0.84;93.82
27210;BME280;14721;42.668;23.386;2022-12-24T06:53:41;95279.91;;;0.70;93.87
27210;BME280;14721;42.668;23.386;2022-12-24T06:56:09;95287.50;;;0.77;93.91
27210;BME280;14721;42.668;23.386;2022-12-24T06:58:36;95288.16;;;0.84;93.90
27210;BME280;14721;42.668;23.386;2022-12-24T07:01:06;95286.63;;;1.00;94.02
27210;BME280;14721;42.668;23.386;2022-12-24T07:03:33;95291.44;;;1.55;93.91
27210;BME280;14721;42.668;23.386;2022-12-24T07:05:59;95299.50;;;2.55;92.20
27210;BME280;14721;42.668;23.386;2022-12-24T07:08:29;95277.63;;;3.64;89.25
27210;BME280;14721;42.668;23.386;2022-12-24T07:10:58;95275.56;;;4.73;84.77
27210;BME280;14721;42.668;23.386;2022-12-24T07:13:24;95272.81;;;5.40;79.70
27210;BME280;14721;42.668;23.386;2022-12-24T07:16:00;95272.22;;;5.97;76.53
27210;BME280;14721;42.668;23.386;2022-12-24T07:18:30;95265.44;;;6.66;73.79
27210;BME280;14721;42.668;23.386;2022-12-24T07:20:56;95280.47;;;6.95;72.06
27210;BME280;14721;42.668;23.386;2022-12-24T07:23:23;95268.63;;;7.29;70.74
27210;BME280;14721;42.668;23.386;2022-12-24T07:25:49;95251.47;;;7.20;69.65
27210;BME280;14721;42.668;23.386;2022-12-24T07:28:15;95283.13;;;7.09;69.69
27210;BME280;14721;42.668;23.386;2022-12-24T07:30:41;95232.53;;;5.96;71.63
27210;BME280;14721;42.668;23.386;2022-12-24T07:33:07;95271.91;;;5.24;75.61
27210;BME280;14721;42.668;23.386;2022-12-24T07:35:33;95277.31;;;4.74;78.32
27210;BME280;14721;42.668;23.386;2022-12-24T07:38:00;95279.28;;;4.37;80.66
27210;BME280;14721;42.668;23.386;2022-12-24T07:40:26;95279.09;;;4.06;82.90
27210;BME280;14721;42.668;23.386;2022-12-24T07:42:53;95283.22;;;3.94;84.38
27210;BME280;14721;42.668;23.386;2022-12-24T07:45:18;95274.41;;;3.93;85.04
27210;BME280;14721;42.668;23.386;2022-12-24T07:47:44;95267.75;;;4.04;85.32
27210;BME280;14721;42.668;23.386;2022-12-24T07:50:10;95266.59;;;4.26;86.34
27210;BME280;14721;42.668;23.386;2022-12-24T07:52:43;95273.47;;;4.63;86.07
27210;BME280;14721;42.668;23.386;2022-12-24T07:55:09;95275.25;;;4.79;84.82
27210;BME280;14721;42.668;23.386;2022-12-24T07:57:34;95278.75;;;4.80;84.25
27210;BME280;14721;42.668;23.386;2022-12-24T08:00:00;95290.28;;;4.79;84.38
27210;BME280;14721;42.668;23.386;2022-12-24T08:02:27;95294.00;;;4.92;84.70
27210;BME280;14721;42.668;23.386;2022-12-24T08:04:57;95289.88;;;5.19;84.83
27210;BME280;14721;42.668;23.386;2022-12-24T08:07:22;95293.44;;;5.50;83.93
27210;BME280;14721;42.668;23.386;2022-12-24T08:09:49;95300.44;;;5.82;83.56
27210;BME280;14721;42.668;23.386;2022-12-24T08:12:14;95298.59;;;6.00;82.35
27210;BME280;14721;42.668;23.386;2022-12-24T08:14:40;95303.00;;;6.15;81.15
27210;BME280;14721;42.668;23.386;2022-12-24T08:17:06;95308.13;;;6.18;80.71
27210;BME280;14721;42.668;23.386;2022-12-24T08:19:31;95309.13;;;6.31;80.22
27210;BME280;14721;42.668;23.386;2022-12-24T08:21:57;95317.09;;;6.31;80.17
27210;BME280;14721;42.668;23.386;2022-12-24T08:24:26;95306.28;;;6.34;79.98
27210;BME280;14721;42.668;23.386;2022-12-24T08:26:52;95308.19;;;6.32;80.28
27210;BME280;14721;42.668;23.386;2022-12-24T08:29:22;95299.78;;;6.40;80.10
27210;BME280;14721;42.668;23.386;2022-12-24T08:31:47;95309.09;;;6.47;79.61
27210;BME280;14721;42.668;23.386;2022-12-24T08:34:13;95305.75;;;6.43;79.98
27210;BME280;14721;42.668;23.386;2022-12-24T08:36:39;95298.56;;;6.45;79.40
27210;BME280;14721;42.668;23.386;2022-12-24T08:39:05;95280.66;;;6.49;79.75
27210;BME280;14721;42.668;23.386;2022-12-24T08:41:33;95291.91;;;6.38;80.45
27210;BME280;14721;42.668;23.386;2022-12-24T08:44:00;95272.84;;;6.32;80.40
27210;BME280;14721;42.668;23.386;2022-12-24T08:46:26;95276.88;;;6.23;81.40
27210;BME280;14721;42.668;23.386;2022-12-24T08:48:51;95282.22;;;6.08;81.82
27210;BME280;14721;42.668;23.386;2022-12-24T08:51:17;95269.66;;;5.96;82.70
27210;BME280;14721;42.668;23.386;2022-12-24T08:53:44;95270.16;;;6.02;83.38
27210;BME280;14721;42.668;23.386;2022-12-24T08:56:10;95273.84;;;5.84;84.05
27210;BME280;14721;42.668;23.386;2022-12-24T08:58:40;95269.31;;;6.02;84.09
27210;BME280;14721;42.668;23.386;2022-12-24T09:01:12;95288.78;;;6.16;83.98
27210;BME280;14721;42.668;23.386;2022-12-24T09:03:38;95283.94;;;6.09;83.86
27210;BME280;14721;42.668;23.386;2022-12-24T09:06:05;95291.09;;;6.07;84.43
27210;BME280;14721;42.668;23.386;2022-12-24T09:08:32;95282.84;;;5.97;85.04
27210;BME280;14721;42.668;23.386;2022-12-24T09:11:10;95274.88;;;5.82;86.17
27210;BME280;14721;42.668;23.386;2022-12-24T09:13:37;95285.25;;;5.86;86.36
27210;BME280;14721;42.668;23.386;2022-12-24T09:16:05;95285.25;;;5.86;86.86
27210;BME280;14721;42.668;23.386;2022-12-24T09:18:31;95276.50;;;5.84;87.18
27210;BME280;14721;42.668;23.386;2022-12-24T09:21:05;95284.72;;;5.95;87.43
27210;BME280;14721;42.668;23.386;2022-12-24T09:23:34;95287.09;;;5.84;87.74
27210;BME280;14721;42.668;23.386;2022-12-24T09:26:09;95280.88;;;5.85;87.48
27210;BME280;14721;42.668;23.386;2022-12-24T09:28:38;95279.66;;;6.06;87.85
27210;BME280;14721;42.668;23.386;2022-12-24T09:31:04;95280.53;;;6.36;87.54
27210;BME280;14721;42.668;23.386;2022-12-24T09:33:35;95277.72;;;6.53;85.71
27210;BME280;14721;42.668;23.386;2022-12-24T09:36:02;95276.34;;;6.32;85.05
27210;BME280;14721;42.668;23.386;2022-12-24T09:38:34;95277.66;;;6.10;85.87
27210;BME280;14721;42.668;23.386;2022-12-24T09:41:00;95285.16;;;5.88;86.50
27210;BME280;14721;42.668;23.386;2022-12-24T09:43:31;95289.16;;;5.79;86.93
27210;BME280;14721;42.668;23.386;2022-12-24T09:48:50;95270.25;;;5.38;88.01
27210;BME280;14721;42.668;23.386;2022-12-24T09:51:28;95270.84;;;5.43;88.44
27210;BME280;14721;42.668;23.386;2022-12-24T09:56:34;95277.34;;;5.38;89.96
27210;BME280;14721;42.668;23.386;2022-12-24T09:59:05;95274.09;;;5.48;90.03
27210;BME280;14721;42.668;23.386;2022-12-24T10:01:33;95276.50;;;5.53;89.51
27210;BME280;14721;42.668;23.386;2022-12-24T10:04:25;95275.03;;;5.63;88.88
27210;BME280;14721;42.668;23.386;2022-12-24T10:12:25;95282.56;;;6.02;86.92
27210;BME280;14721;42.668;23.386;2022-12-24T10:20:35;95265.44;;;6.07;87.11
27210;BME280;14721;42.668;23.386;2022-12-24T10:23:24;95255.88;;;6.05;85.91
27210;BME280;14721;42.668;23.386;2022-12-24T10:31:24;95255.63;;;6.39;85.66
27210;BME280;14721;42.668;23.386;2022-12-24T10:33:59;95259.94;;;6.26;85.49
27210;BME280;14721;42.668;23.386;2022-12-24T10:36:30;95262.06;;;6.35;86.26
27210;BME280;14721;42.668;23.386;2022-12-24T10:39:12;95257.91;;;6.45;86.16
27210;BME280;14721;42.668;23.386;2022-12-24T10:41:41;95255.94;;;6.62;85.75
27210;BME280;14721;42.668;23.386;2022-12-24T10:44:11;95253.19;;;6.64;85.08
27210;BME280;14721;42.668;23.386;2022-12-24T10:46:39;95246.97;;;6.65;84.45
27210;BME280;14721;42.668;23.386;2022-12-24T10:49:30;95233.41;;;6.97;83.84
27210;BME280;14721;42.668;23.386;2022-12-24T10:52:05;95234.19;;;6.99;83.61
27210;BME280;14721;42.668;23.386;2022-12-24T10:57:46;95236.53;;;7.32;82.32
27210;BME280;14721;42.668;23.386;2022-12-24T11:00:29;95220.31;;;7.22;82.04
27210;BME280;14721;42.668;23.386;2022-12-24T11:03:32;95244.72;;;7.29;81.54
27210;BME280;14721;42.668;23.386;2022-12-24T11:06:15;95252.28;;;7.49;81.52
27210;BME280;14721;42.668;23.386;2022-12-24T11:08:46;95236.69;;;7.84;80.82
27210;BME280;14721;42.668;23.386;2022-12-24T11:11:12;95237.88;;;7.80;79.91
27210;BME280;14721;42.668;23.386;2022-12-24T11:16:31;95245.06;;;7.78;79.38
27210;BME280;14721;42.668;23.386;2022-12-24T11:19:01;95244.84;;;7.68;80.27
27210;BME280;14721;42.668;23.386;2022-12-24T11:21:33;95230.34;;;7.59;80.30
27210;BME280;14721;42.668;23.386;2022-12-24T11:26:41;95207.72;;;7.66;80.36
27210;BME280;14721;42.668;23.386;2022-12-24T11:29:27;95224.72;;;7.91;80.14
27210;BME280;14721;42.668;23.386;2022-12-24T11:32:17;95229.88;;;8.06;79.25
27210;BME280;14721;42.668;23.386;2022-12-24T11:34:43;95238.06;;;8.03;79.35
27210;BME280;14721;42.668;23.386;2022-12-24T11:37:23;95241.47;;;8.05;79.63
27210;BME280;14721;42.668;23.386;2022-12-24T11:39:54;95234.38;;;8.18;79.33
27210;BME280;14721;42.668;23.386;2022-12-24T11:42:37;95220.00;;;8.35;78.30
27210;BME280;14721;42.668;23.386;2022-12-24T11:45:20;95231.75;;;8.57;79.54
27210;BME280;14721;42.668;23.386;2022-12-24T11:47:49;95230.50;;;8.75;78.44
27210;BME280;14721;42.668;23.386;2022-12-24T11:52:59;95223.03;;;8.68;76.54
27210;BME280;14721;42.668;23.386;2022-12-24T11:55:47;95218.91;;;9.01;75.44
27210;BME280;14721;42.668;23.386;2022-12-24T11:58:50;95212.44;;;9.41;74.05
27210;BME280;14721;42.668;23.386;2022-12-24T12:01:27;95213.78;;;9.72;72.94
27210;BME280;14721;42.668;23.386;2022-12-24T12:06:51;95210.59;;;9.67;72.16
27210;BME280;14721;42.668;23.386;2022-12-24T12:09:31;95212.84;;;9.61;72.46
27210;BME280;14721;42.668;23.386;2022-12-24T12:12:06;95210.34;;;9.70;71.71
27210;BME280;14721;42.668;23.386;2022-12-24T12:14:43;95204.63;;;9.64;71.97
27210;BME280;14721;42.668;23.386;2022-12-24T12:17:25;95212.66;;;9.51;71.91
27210;BME280;14721;42.668;23.386;2022-12-24T12:20:02;95201.91;;;9.40;72.47
27210;BME280;14721;42.668;23.386;2022-12-24T12:22:46;95207.75;;;9.57;72.42
27210;BME280;14721;42.668;23.386;2022-12-24T12:25:26;95214.00;;;9.69;71.98
27210;BME280;14721;42.668;23.386;2022-12-24T12:27:59;95210.88;;;9.75;71.52
27210;BME280;14721;42.668;23.386;2022-12-24T12:30:30;95205.56;;;9.75;71.42
27210;BME280;14721;42.668;23.386;2022-12-24T12:35:43;95212.22;;;9.93;70.78
27210;BME280;14721;42.668;23.386;2022-12-24T12:38:23;95201.75;;;9.90;69.94
27210;BME280;14721;42.668;23.386;2022-12-24T12:49:15;95205.97;;;10.18;68.97
27210;BME280;14721;42.668;23.386;2022-12-24T12:52:06;95206.84;;;10.06;69.66
27210;BME280;14721;42.668;23.386;2022-12-24T12:57:18;95217.53;;;9.70;70.79
27210;BME280;14721;42.668;23.386;2022-12-24T13:00:11;95233.03;;;9.52;72.08
27210;BME280;14721;42.668;23.386;2022-12-24T13:03:20;95244.50;;;9.29;72.79
27210;BME280;14721;42.668;23.386;2022-12-24T13:08:55;95248.84;;;8.92;75.07
27210;BME280;14721;42.668;23.386;2022-12-24T13:14:52;95240.41;;;8.61;77.89
27210;BME280;14721;42.668;23.386;2022-12-24T13:20:31;95249.88;;;8.52;78.23
27210;BME280;14721;42.668;23.386;2022-12-24T13:23:09;95247.41;;;8.62;78.22
27210;BME280;14721;42.668;23.386;2022-12-24T13:25:39;95254.44;;;8.50;78.24
27210;BME280;14721;42.668;23.386;2022-12-24T13:33:50;95268.94;;;8.59;79.03
27210;BME280;14721;42.668;23.386;2022-12-24T13:36:24;95273.84;;;8.65;78.60
27210;BME280;14721;42.668;23.386;2022-12-24T13:39:24;95263.72;;;8.57;78.87
27210;BME280;14721;42.668;23.386;2022-12-24T13:41:51;95263.28;;;8.51;79.37
27210;BME280;14721;42.668;23.386;2022-12-24T13:44:23;95264.41;;;8.34;79.89
27210;BME280;14721;42.668;23.386;2022-12-24T13:49:49;95273.38;;;8.19;81.13
27210;BME280;14721;42.668;23.386;2022-12-24T13:52:22;95278.44;;;8.10;82.00
27210;BME280;14721;42.668;23.386;2022-12-24T14:02:48;95274.34;;;7.78;84.26
27210;BME280;14721;42.668;23.386;2022-12-24T14:05:54;95280.13;;;7.84;84.26
27210;BME280;14721;42.668;23.386;2022-12-24T14:19:27;95284.25;;;7.61;89.65
27210;BME280;14721;42.668;23.386;2022-12-24T14:25:02;95288.16;;;7.56;90.17
27210;BME280;14721;42.668;23.386;2022-12-24T14:27:38;95289.50;;;7.35;92.05
27210;BME280;14721;42.668;23.386;2022-12-24T14:30:24;95289.97;;;7.13;93.93
27210;BME280;14721;42.668;23.386;2022-12-24T14:32:56;95297.09;;;7.13;95.35
27210;BME280;14721;42.668;23.386;2022-12-24T14:35:36;95302.09;;;7.03;96.33
27210;BME280;14721;42.668;23.386;2022-12-24T14:38:03;95279.31;;;6.85;97.77
27210;BME280;14721;42.668;23.386;2022-12-24T14:40:51;95299.25;;;6.92;98.85
27210;BME280;14721;42.668;23.386;2022-12-24T14:43:49;95310.63;;;6.94;99.72
27210;BME280;14721;42.668;23.386;2022-12-24T14:54:46;95299.50;;;6.88;100.00
27210;BME280;14721;42.668;23.386;2022-12-24T14:57:18;95310.66;;;7.08;100.00
27210;BME280;14721;42.668;23.386;2022-12-24T15:02:30;95309.91;;;7.06;100.00
27210;BME280;14721;42.668;23.386;2022-12-24T15:05:15;95299.16;;;6.94;100.00
27210;BME280;14721;42.668;23.386;2022-12-24T15:08:06;95316.53;;;7.13;100.00
27210;BME280;14721;42.668;23.386;2022-12-24T15:10:37;95317.13;;;7.32;100.00
27210;BME280;14721;42.668;23.386;2022-12-24T15:13:12;95323.66;;;7.27;100.00
27210;BME280;14721;42.668;23.386;2022-12-24T15:15:42;95318.63;;;7.22;100.00
27210;BME280;14721;42.668;23.386;2022-12-24T15:18:15;95324.41;;;7.15;100.00
27210;BME280;14721;42.668;23.386;2022-12-24T15:20:50;95329.44;;;7.19;100.00